createdAt,value
2023-01-06T00:00:27.070Z,175
2023-01-06T00:02:28.365Z,175
2023-01-06T00:04:29.404Z,175
2023-01-06T00:08:32.001Z,169
2023-01-06T00:10:33.524Z,171
2023-01-06T00:14:36.261Z,171
2023-01-06T00:16:37.671Z,171
2023-01-06T00:18:39.204Z,171
2023-01-06T00:20:40.564Z,171
2023-01-06T00:22:41.702Z,171
2023-01-06T00:24:42.643Z,171
2023-01-06T00:28:46.398Z,171
2023-01-06T00:30:48.287Z,171
2023-01-06T00:32:49.590Z,171
2023-01-06T00:34:51.041Z,171
2023-01-06T00:36:52.654Z,171
2023-01-06T00:40:55.478Z,171
2023-01-06T00:42:57.171Z,171
2023-01-06T00:44:58.646Z,172
2023-01-06T00:46:59.691Z,172
2023-01-06T00:51:02.446Z,172
2023-01-06T00:53:03.749Z,170
2023-01-06T00:55:05.307Z,177
2023-01-06T00:57:06.893Z,177
2023-01-06T01:01:10.529Z,171
2023-01-06T01:03:11.994Z,169
2023-01-06T01:05:13.418Z,169
2023-01-06T01:07:14.914Z,170
2023-01-06T01:13:19.314Z,204
2023-01-06T01:15:20.899Z,205
2023-01-06T01:17:22.739Z,203
2023-01-06T01:19:24.319Z,176
2023-01-06T01:23:26.589Z,238
2023-01-06T01:25:27.950Z,237
2023-01-06T01:27:29.512Z,175
2023-01-06T01:29:31.272Z,170
2023-01-06T01:33:34.103Z,233
2023-01-06T01:35:35.927Z,164
2023-01-06T01:39:38.359Z,177
2023-01-06T01:43:41.006Z,201
2023-01-06T01:45:42.853Z,164
2023-01-06T01:49:46.185Z,173
2023-01-06T01:53:49.670Z,167
2023-01-06T01:55:51.461Z,180
2023-01-06T01:57:53.327Z,256
2023-01-06T01:59:54.308Z,252
2023-01-06T02:01:56.175Z,283
2023-01-06T02:05:58.984Z,285
2023-01-06T02:08:00.879Z,228
2023-01-06T02:10:01.973Z,163
2023-01-06T02:12:03.773Z,231
2023-01-06T02:16:06.435Z,166
2023-01-06T02:18:07.587Z,166
2023-01-06T02:22:10.826Z,163
2023-01-06T02:26:13.482Z,230
2023-01-06T02:28:15.281Z,167
2023-01-06T02:32:18.908Z,298
2023-01-06T02:36:21.895Z,298
2023-01-06T02:38:23.458Z,298
2023-01-06T02:42:26.302Z,298
2023-01-06T02:44:27.955Z,140
2023-01-06T02:46:28.997Z,182
2023-01-06T02:48:30.810Z,182
2023-01-06T02:54:34.466Z,206
2023-01-06T02:56:36.062Z,210
2023-01-06T02:58:37.978Z,213
2023-01-06T03:00:39.888Z,279
2023-01-06T03:03:24.857Z,279
2023-01-06T03:05:26.009Z,279
2023-01-06T03:09:29.328Z,280
2023-01-06T03:11:30.567Z,280
2023-01-06T03:13:32.479Z,280
2023-01-06T03:15:33.879Z,280
2023-01-06T03:17:35.609Z,280
2023-01-06T03:19:37.295Z,280
2023-01-06T03:21:38.901Z,280
2023-01-06T03:23:40.011Z,280
2023-01-06T03:25:40.981Z,280
2023-01-06T03:27:42.549Z,280
2023-01-06T03:29:44.411Z,280
2023-01-06T03:31:45.517Z,280
2023-01-06T03:33:47.423Z,280
2023-01-06T03:35:48.965Z,280
2023-01-06T03:37:50.223Z,280
2023-01-06T03:41:53.902Z,280
2023-01-06T03:43:55.225Z,280
2023-01-06T03:45:56.614Z,280
2023-01-06T03:47:57.830Z,280
2023-01-06T03:52:00.416Z,280
2023-01-06T03:54:01.681Z,280
2023-01-06T03:56:03.416Z,280
2023-01-06T03:58:05.066Z,280
2023-01-06T04:02:08.383Z,280
2023-01-06T04:04:10.181Z,280
2023-01-06T04:06:11.555Z,280
2023-01-06T04:08:13.204Z,280
2023-01-06T04:10:14.504Z,280
2023-01-06T04:12:16.409Z,280
2023-01-06T04:14:17.468Z,280
2023-01-06T04:16:18.575Z,280
2023-01-06T04:18:20.360Z,280
2023-01-06T04:20:21.912Z,280
2023-01-06T04:24:25.251Z,280
2023-01-06T04:26:26.537Z,280
2023-01-06T04:28:27.816Z,280
2023-01-06T04:30:29.722Z,278
2023-01-06T04:34:32.027Z,278
2023-01-06T04:36:33.388Z,277
2023-01-06T04:38:34.687Z,213
2023-01-06T04:40:36.491Z,251
2023-01-06T04:44:39.968Z,237
2023-01-06T04:46:41.378Z,226
2023-01-06T04:48:42.731Z,220
2023-01-06T04:50:44.529Z,204
2023-01-06T04:56:49.642Z,231
2023-01-06T04:58:50.743Z,257
2023-01-06T05:00:52.233Z,243
2023-01-06T05:02:53.570Z,243
2023-01-06T05:06:56.809Z,245
2023-01-06T05:08:58.221Z,243
2023-01-06T05:10:59.857Z,214
2023-01-06T05:13:01.223Z,229
2023-01-06T05:17:04.423Z,208
2023-01-06T05:19:05.730Z,214
2023-01-06T05:23:09.172Z,360
2023-01-06T05:27:12.215Z,210
2023-01-06T05:29:13.228Z,209
2023-01-06T05:31:14.292Z,225
2023-01-06T05:33:15.461Z,224
2023-01-06T05:37:17.704Z,218
2023-01-06T05:39:19.602Z,218
2023-01-06T05:43:22.547Z,218
2023-01-06T05:45:24.292Z,218
2023-01-06T05:47:25.125Z,218
2023-01-06T05:49:26.668Z,218
2023-01-06T05:55:32.149Z,239
2023-01-06T05:59:35.111Z,233
2023-01-06T06:01:36.515Z,233
2023-01-06T06:05:39.375Z,238
2023-01-06T06:09:41.323Z,238
2023-01-06T06:11:42.607Z,238
2023-01-06T06:15:45.791Z,243
2023-01-06T06:17:46.836Z,241
2023-01-06T06:19:48.203Z,242
2023-01-06T06:21:49.265Z,243
2023-01-06T06:23:50.421Z,242
2023-01-06T06:25:51.857Z,243
2023-01-06T06:27:53.071Z,243
2023-01-06T06:29:54.927Z,243
2023-01-06T06:31:56.413Z,243
2023-01-06T06:33:57.803Z,243
2023-01-06T06:35:59.031Z,242
2023-01-06T06:38:00.260Z,242
2023-01-06T06:40:01.623Z,173
2023-01-06T06:42:03.484Z,196
2023-01-06T06:44:04.864Z,187
2023-01-06T06:48:07.757Z,187
2023-01-06T06:50:08.717Z,187
2023-01-06T06:52:09.990Z,177
2023-01-06T06:54:11.694Z,177
2023-01-06T06:58:15.083Z,177
2023-01-06T07:00:16.592Z,183
2023-01-06T07:02:18.270Z,183
2023-01-06T07:04:19.369Z,185
2023-01-06T07:08:22.059Z,206
2023-01-06T07:10:23.084Z,214
2023-01-06T07:12:24.806Z,217
2023-01-06T07:14:26.103Z,238
2023-01-06T07:20:30.547Z,233
2023-01-06T07:22:32.336Z,266
2023-01-06T07:24:33.335Z,232
2023-01-06T07:26:34.543Z,226
2023-01-06T07:30:37.119Z,215
2023-01-06T07:32:38.815Z,219
2023-01-06T07:34:39.901Z,238
2023-01-06T07:36:41.774Z,220
2023-01-06T07:40:44.136Z,282
2023-01-06T07:42:45.982Z,282
2023-01-06T07:46:49.204Z,226
2023-01-06T07:50:51.828Z,224
2023-01-06T07:52:53.237Z,258
2023-01-06T07:56:56.382Z,225
2023-01-06T08:00:59.069Z,220
2023-01-06T08:03:00.812Z,232
2023-01-06T08:07:03.831Z,232
2023-01-06T08:09:05.271Z,205
2023-01-06T08:11:06.781Z,238
2023-01-06T08:13:08.035Z,238
2023-01-06T08:17:11.068Z,223
2023-01-06T08:19:12.871Z,213
2023-01-06T08:23:15.642Z,239
2023-01-06T08:25:17.022Z,274
2023-01-06T08:29:19.598Z,217
2023-01-06T08:33:22.105Z,224
2023-01-06T08:35:23.234Z,243
2023-01-06T08:39:26.014Z,262
2023-01-06T08:41:27.716Z,218
2023-01-06T08:43:29.221Z,217
2023-01-06T08:45:30.177Z,221
2023-01-06T08:47:31.243Z,242
2023-01-06T08:49:32.551Z,201
2023-01-06T08:51:33.830Z,214
2023-01-06T08:53:34.811Z,224
2023-01-06T08:55:36.600Z,221
2023-01-06T08:57:37.816Z,206
2023-01-06T08:59:38.972Z,288
2023-01-06T09:01:40.784Z,227
2023-01-06T09:03:42.100Z,209
2023-01-06T09:05:43.180Z,236
2023-01-06T09:07:44.981Z,215
2023-01-06T09:11:48.170Z,251
2023-01-06T09:13:50.013Z,237
2023-01-06T09:17:52.743Z,222
2023-01-06T09:21:55.438Z,299
2023-01-06T09:23:56.639Z,227
2023-01-06T09:25:57.801Z,236
2023-01-06T09:27:59.038Z,214
2023-01-06T09:32:02.248Z,244
2023-01-06T09:34:03.701Z,225
2023-01-06T09:36:05.558Z,232
2023-01-06T09:38:07.349Z,237
2023-01-06T09:42:10.470Z,214
2023-01-06T09:44:12.022Z,221
2023-01-06T09:46:13.267Z,234
2023-01-06T09:48:14.356Z,199
2023-01-06T09:50:59.983Z,237
2023-01-06T09:53:01.560Z,210
2023-01-06T09:55:02.984Z,207
2023-01-06T09:59:05.698Z,208
2023-01-06T10:01:06.672Z,230
2023-01-06T10:05:09.476Z,244
2023-01-06T10:09:11.503Z,239
2023-01-06T10:11:12.508Z,245
2023-01-06T10:15:15.244Z,226
2023-01-06T10:19:17.731Z,195
2023-01-06T10:21:19.222Z,242
2023-01-06T10:25:21.770Z,218
2023-01-06T10:27:23.263Z,238
2023-01-06T10:29:24.401Z,275
2023-01-06T10:31:26.116Z,275
2023-01-06T10:35:28.508Z,260
2023-01-06T10:37:29.675Z,284
2023-01-06T10:39:31.034Z,274
2023-01-06T10:41:32.832Z,245
2023-01-06T10:43:33.757Z,227
2023-01-06T10:47:37.301Z,251
2023-01-06T10:49:38.973Z,249
2023-01-06T10:51:40.750Z,228
2023-01-06T10:53:42.442Z,265
2023-01-06T10:57:45.380Z,313
2023-01-06T10:59:46.897Z,283
2023-01-06T11:01:48.005Z,230
2023-01-06T11:03:48.826Z,230
2023-01-06T11:05:50.241Z,230
2023-01-06T11:07:51.873Z,254
2023-01-06T11:09:52.866Z,253
2023-01-06T11:11:54.393Z,253
2023-01-06T11:13:55.645Z,288
2023-01-06T11:15:56.672Z,288
2023-01-06T11:17:58.163Z,263
2023-01-06T11:19:59.203Z,259
2023-01-06T11:24:02.116Z,253
2023-01-06T11:26:03.419Z,230
2023-01-06T11:30:06.336Z,214
2023-01-06T11:32:08.012Z,237
2023-01-06T11:34:09.728Z,257
2023-01-06T11:36:11.043Z,235
2023-01-06T11:38:12.692Z,228
2023-01-06T11:40:14.161Z,257
2023-01-06T11:42:15.675Z,234
2023-01-06T11:44:16.774Z,256
2023-01-06T11:46:18.431Z,207
2023-01-06T11:48:19.276Z,232
2023-01-06T11:50:20.375Z,232
2023-01-06T11:52:22.226Z,227
2023-01-06T11:54:23.969Z,213
2023-01-06T11:56:25.819Z,242
2023-01-06T11:58:27.716Z,235
2023-01-06T12:02:29.957Z,232
2023-01-06T12:04:31.234Z,360
2023-01-06T12:08:34.046Z,360
2023-01-06T12:12:37.510Z,360
2023-01-06T12:14:39.214Z,360
2023-01-06T12:16:40.896Z,360
2023-01-06T12:18:41.824Z,210
2023-01-06T12:20:43.201Z,314
2023-01-06T12:22:44.806Z,257
2023-01-06T12:24:46.701Z,212
2023-01-06T12:26:47.826Z,259
2023-01-06T12:28:49.564Z,260
2023-01-06T12:30:50.535Z,257
2023-01-06T12:32:52.086Z,249
2023-01-06T12:34:53.952Z,249
2023-01-06T12:36:55.354Z,236
2023-01-06T12:38:56.835Z,242
2023-01-06T12:40:58.033Z,255
2023-01-06T12:45:01.483Z,224
2023-01-06T12:47:03.036Z,360
2023-01-06T12:49:04.017Z,232
2023-01-06T12:51:05.733Z,240
2023-01-06T12:55:08.287Z,227
2023-01-06T12:57:10.043Z,174
2023-01-06T12:59:11.188Z,228
2023-01-06T13:01:12.582Z,244
2023-01-06T13:05:15.453Z,226
2023-01-06T13:07:16.969Z,230
2023-01-06T13:09:18.501Z,208
2023-01-06T13:11:19.752Z,199
2023-01-06T13:15:22.474Z,217
2023-01-06T13:17:23.386Z,251
2023-01-06T13:19:25.212Z,238
2023-01-06T13:21:26.731Z,259
2023-01-06T13:23:28.105Z,238
2023-01-06T13:27:31.253Z,223
2023-01-06T13:29:32.907Z,219
2023-01-06T13:31:34.387Z,222
2023-01-06T13:33:35.841Z,221
2023-01-06T13:37:38.262Z,224
2023-01-06T13:39:39.817Z,222
2023-01-06T13:43:42.480Z,236
2023-01-06T13:45:44.436Z,222
2023-01-06T13:49:47.479Z,219
2023-01-06T13:53:50.651Z,217
2023-01-06T13:57:52.940Z,207
2023-01-06T13:59:54.828Z,243
2023-01-06T14:03:57.538Z,224
2023-01-06T14:05:58.923Z,235
2023-01-06T14:08:00.710Z,221
2023-01-06T14:10:02.229Z,245
2023-01-06T14:16:05.592Z,260
2023-01-06T14:18:07.067Z,205
2023-01-06T14:20:08.636Z,261
2023-01-06T14:22:10.352Z,281
2023-01-06T14:26:13.148Z,249
2023-01-06T14:30:16.096Z,242
2023-01-06T14:32:17.302Z,214
2023-01-06T14:36:20.049Z,247
2023-01-06T14:38:21.125Z,227
2023-01-06T14:40:22.275Z,228
2023-01-06T14:42:23.468Z,223
2023-01-06T14:44:24.447Z,235
2023-01-06T14:46:26.248Z,288
2023-01-06T14:48:27.612Z,284
2023-01-06T14:50:38.438Z,197
2023-01-06T14:52:30.262Z,208
2023-01-06T14:54:31.383Z,252
2023-01-06T14:56:32.826Z,252
2023-01-06T14:58:34.325Z,252
2023-01-06T15:00:35.962Z,236
2023-01-06T15:02:37.937Z,259
2023-01-06T15:04:39.496Z,259
2023-01-06T15:08:41.803Z,229
2023-01-06T15:10:43.013Z,237
2023-01-06T15:14:45.905Z,215
2023-01-06T15:18:48.817Z,256
2023-01-06T15:20:49.955Z,223
2023-01-06T15:22:51.199Z,237
2023-01-06T15:24:52.192Z,259
2023-01-06T15:28:54.398Z,230
2023-01-06T15:30:55.481Z,254
2023-01-06T15:32:56.459Z,241
2023-01-06T15:34:58.081Z,228
2023-01-06T15:41:03.214Z,297
2023-01-06T15:43:04.253Z,297
2023-01-06T15:45:07.578Z,230
2023-01-06T15:47:06.624Z,230
2023-01-06T15:51:09.349Z,231
2023-01-06T15:53:11.003Z,231
2023-01-06T15:55:12.040Z,235
2023-01-06T15:57:16.354Z,235
2023-01-06T16:01:16.339Z,262
2023-01-06T16:03:18.056Z,262
2023-01-06T16:07:21.506Z,224
2023-01-06T16:11:24.474Z,235
2023-01-06T16:13:25.930Z,235
2023-01-06T16:17:29.108Z,215
2023-01-06T16:21:32.638Z,267
2023-01-06T16:23:33.914Z,194
2023-01-06T16:27:36.483Z,185
2023-01-06T16:29:37.678Z,180
2023-01-06T16:31:38.849Z,169
2023-01-06T16:33:40.290Z,169
2023-01-06T16:34:24.120Z,170
2023-01-06T16:36:25.729Z,170
2023-01-06T16:38:27.666Z,237
2023-01-06T16:40:29.196Z,237
2023-01-06T16:44:31.434Z,238
2023-01-06T16:46:32.656Z,251
2023-01-06T16:48:33.585Z,257
2023-01-06T16:50:35.542Z,245
2023-01-06T16:54:37.863Z,252
2023-01-06T16:56:39.119Z,240
2023-01-06T16:58:40.773Z,160
2023-01-06T17:00:42.293Z,150
2023-01-06T17:02:43.298Z,221
2023-01-06T17:04:44.559Z,178
2023-01-06T17:06:45.617Z,240
2023-01-06T17:08:47.223Z,240
2023-01-06T17:10:48.150Z,230
2023-01-06T17:12:49.539Z,176
2023-01-06T17:14:51.160Z,238
2023-01-06T17:16:52.539Z,238
2023-01-06T17:18:53.986Z,237
2023-01-06T17:20:55.335Z,237
2023-01-06T17:22:56.430Z,173
2023-01-06T17:26:59.324Z,186
2023-01-06T17:29:00.844Z,183
2023-01-06T17:31:02.760Z,239
2023-01-06T17:33:12.120Z,227
2023-01-06T17:37:06.718Z,244
2023-01-06T17:39:07.734Z,178
2023-01-06T17:41:09.579Z,175
2023-01-06T17:43:10.861Z,217
2023-01-06T17:47:12.919Z,252
2023-01-06T17:49:13.884Z,240
2023-01-06T17:51:15.553Z,186
2023-01-06T17:53:16.649Z,191
2023-01-06T17:57:19.443Z,166
2023-01-06T17:59:20.701Z,166
2023-01-06T18:03:22.956Z,196
2023-01-06T18:05:24.190Z,238
2023-01-06T18:07:25.299Z,238
2023-01-06T18:09:26.475Z,238
2023-01-06T18:13:29.514Z,238
2023-01-06T18:15:30.626Z,239
2023-01-06T18:19:33.940Z,239
2023-01-06T18:21:35.283Z,239
2023-01-06T18:25:38.440Z,254
2023-01-06T18:29:41.444Z,220
2023-01-06T18:31:43.111Z,243
2023-01-06T18:35:45.970Z,243
2023-01-06T18:39:48.776Z,213
2023-01-06T18:41:50.056Z,199
2023-01-06T18:45:53.698Z,204
2023-01-06T18:47:54.737Z,204
2023-01-06T18:49:56.073Z,204
2023-01-06T18:51:57.657Z,204
2023-01-06T18:58:02.359Z,204
2023-01-06T19:00:03.688Z,205
2023-01-06T19:02:05.190Z,205
2023-01-06T19:04:06.597Z,205
2023-01-06T19:08:09.751Z,205
2023-01-06T19:10:11.197Z,205
2023-01-06T19:12:13.058Z,205
2023-01-06T19:14:14.704Z,205
2023-01-06T19:18:17.732Z,205
2023-01-06T19:22:21.071Z,205
2023-01-06T19:24:22.692Z,205
2023-01-06T19:28:25.755Z,205
2023-01-06T19:30:26.758Z,206
2023-01-06T19:32:28.919Z,206
2023-01-06T19:34:29.530Z,206
2023-01-06T19:36:30.558Z,227
2023-01-06T19:38:32.031Z,227
2023-01-06T19:40:33.389Z,227
2023-01-06T19:42:34.769Z,194
2023-01-06T19:44:36.589Z,157
2023-01-06T19:46:37.891Z,227
2023-01-06T19:50:40.553Z,234
2023-01-06T19:52:42.344Z,234
2023-01-06T19:54:43.494Z,234
2023-01-06T19:56:45.094Z,234
2023-01-06T20:00:48.339Z,234
2023-01-06T20:02:49.411Z,234
2023-01-06T20:04:50.866Z,234
2023-01-06T20:06:52.255Z,234
2023-01-06T20:10:54.924Z,234
2023-01-06T20:12:56.636Z,234
2023-01-06T20:14:58.333Z,234
2023-01-06T20:16:59.815Z,234
2023-01-06T20:19:01.598Z,236
2023-01-06T20:21:02.907Z,236
2023-01-06T20:23:04.567Z,236
2023-01-06T20:25:05.672Z,236
2023-01-06T20:27:07.344Z,236
2023-01-06T20:29:08.656Z,236
2023-01-06T20:33:11.517Z,142
2023-01-06T20:35:13.452Z,142
2023-01-06T20:39:16.775Z,165
2023-01-06T20:43:19.867Z,199
2023-01-06T20:45:20.982Z,199
2023-01-06T20:47:22.776Z,188
2023-01-06T20:49:24.027Z,173
2023-01-06T20:51:25.711Z,236
2023-01-06T20:53:27.256Z,211
2023-01-06T20:55:28.952Z,211
2023-01-06T20:57:30.435Z,247
2023-01-06T20:59:31.489Z,247
2023-01-06T21:01:32.741Z,247
2023-01-06T21:03:34.365Z,247
2023-01-06T21:05:36.052Z,247
2023-01-06T21:07:37.087Z,247
2023-01-06T21:09:38.613Z,198
2023-01-06T21:11:39.562Z,198
2023-01-06T21:15:42.753Z,170
2023-01-06T21:17:43.981Z,170
2023-01-06T21:19:45.235Z,197
2023-01-06T21:21:46.133Z,209
2023-01-06T21:25:48.981Z,174
2023-01-06T21:27:50.283Z,210
2023-01-06T21:31:52.818Z,183
2023-01-06T21:35:55.758Z,231
2023-01-06T21:37:57.590Z,231
2023-01-06T21:39:59.238Z,231
2023-01-06T21:42:00.237Z,231
2023-01-06T21:46:03.651Z,231
2023-01-06T21:48:04.404Z,231
2023-01-06T21:52:07.088Z,231
2023-01-06T21:54:08.040Z,231
2023-01-06T21:56:09.610Z,231
2023-01-06T21:58:11.013Z,234
2023-01-06T22:04:15.600Z,232
2023-01-06T22:06:16.886Z,245
2023-01-06T22:08:17.947Z,229
2023-01-06T22:10:19.598Z,229
2023-01-06T22:14:23.213Z,240
2023-01-06T22:16:24.321Z,241
2023-01-06T22:18:26.228Z,251
2023-01-06T22:20:27.458Z,251
2023-01-06T22:24:30.430Z,251
2023-01-06T22:26:31.784Z,251
2023-01-06T22:28:33.106Z,255
2023-01-06T22:30:34.650Z,257
2023-01-06T22:32:36.065Z,257
2023-01-06T22:34:37.799Z,251
2023-01-06T22:36:39.560Z,251
2023-01-06T22:38:41.353Z,251
2023-01-06T22:40:42.938Z,251
2023-01-06T22:42:44.325Z,251
2023-01-06T22:44:45.289Z,251
2023-01-06T22:46:47.161Z,251
2023-01-06T22:48:48.470Z,271
2023-01-06T22:50:50.061Z,271
2023-01-06T22:52:51.119Z,271
2023-01-06T22:56:53.295Z,271
2023-01-06T22:58:55.127Z,271
2023-01-06T23:02:57.939Z,271
2023-01-06T23:07:00.930Z,271
2023-01-06T23:09:02.217Z,271
2023-01-06T23:11:04.021Z,271
2023-01-06T23:13:05.399Z,271
2023-01-06T23:15:06.694Z,271
2023-01-06T23:17:08.027Z,271
2023-01-06T23:19:09.210Z,271
2023-01-06T23:21:54.828Z,271
2023-01-06T23:23:56.461Z,271
2023-01-06T23:25:57.937Z,271
2023-01-06T23:27:59.578Z,271
2023-01-06T23:30:00.776Z,271
2023-01-06T23:34:03.457Z,271
2023-01-06T23:36:04.839Z,271
2023-01-06T23:38:06.564Z,271
2023-01-06T23:40:08.157Z,271
2023-01-06T23:44:10.726Z,271
2023-01-06T23:46:11.921Z,271
2023-01-06T23:50:14.645Z,271
2023-01-06T23:54:17.053Z,187
2023-01-06T23:56:18.834Z,187
